Data for 03/30/2016

Time Sea-Level Adjusted Pressure Absolute Pressure Temperature Relative Humidity Dew Point   
(mb) (inHg) (mb) (inHg) (C) (F) (%) (C) (F)
00:05 1016 30 846 24.98 1 33.9 88 -0.7 30.8
00:10 1017 30.03 846 24.98 1 33.8 89 -0.6 30.9
00:15 1017 30.03 846 24.98 0.9 33.7 90 -0.6 31
00:20 1017 30.03 846 24.98 1 33.9 89 -0.6 30.9
00:25 1017 30.03 846 24.98 1.1 33.9 89 -0.6 30.9
00:30 1017 30.03 846 24.98 1 33.9 89 -0.6 31
00:35 1017 30.03 846 24.98 1 33.8 89 -0.6 30.9
00:40 1017 30.03 846 24.98 1 33.9 89 -0.6 31
00:45 1017 30.03 846 24.98 1.1 33.9 89 -0.6 30.9
00:50 1017 30.03 846 24.98 1.1 34 88 -0.6 30.9
00:55 1017 30.03 846 24.98 1.1 34.1 88 -0.6 30.9
01:00 1017 30.03 846 24.98 1.1 34.1 88 -0.6 30.9
01:05 1017 30.03 846 24.98 1.1 34 88 -0.6 31
01:10 1016 30 846 24.98 1.2 34.1 88 -0.6 30.8
01:15 1016 30 846 24.98 1.2 34.1 87 -0.8 30.6
01:20 1016 30 846 24.98 1.2 34.1 86 -0.8 30.5
01:25 1016 30 846 24.98 1.2 34.2 86 -0.9 30.3
01:30 1016 30 846 24.98 1.2 34.2 86 -0.9 30.4
01:35 1016 30 846 24.98 1.2 34.2 85 -1 30.3
01:40 1016 30 846 24.98 1.3 34.3 85 -0.9 30.3
01:45 1016 30 846 24.98 1.2 34.2 86 -0.8 30.6
01:50 1016 30 846 24.98 1.2 34.1 86 -0.9 30.4
01:55 1016 30 846 24.98 1.2 34.1 86 -0.9 30.3
02:00 1016 30 845 24.95 1.2 34.1 85 -1 30.2
02:05 1016 30 845 24.95 1.2 34.2 85 -1 30.2
02:10 1016 30 845 24.95 1.2 34.2 85 -1 30.2
02:15 1016 30 845 24.95 1.2 34.2 86 -0.9 30.3
02:20 1016 30 845 24.95 1.2 34.1 85 -1 30.2
02:25 1016 30 845 24.95 1.2 34.2 86 -0.9 30.3
02:30 1016 30 845 24.95 1.2 34.1 86 -1 30.3
02:35 1016 30 845 24.95 1.2 34.1 86 -1 30.3
02:40 1016 30 845 24.95 1.1 34 86 -1 30.2
02:45 1016 30 845 24.95 1.1 34 86 -0.9 30.3
02:50 1016 30 845 24.95 1.1 34 86 -1 30.2
02:55 1016 30 845 24.95 1.1 34 86 -0.9 30.3
03:00 1016 30 845 24.95 1.1 33.9 86 -0.9 30.3
03:05 1016 30 845 24.95 1.1 34 85 -1.2 29.9
03:10 1016 30 845 24.95 1.4 34.5 83 -1.2 29.8
03:15 1016 30 845 24.95 1.6 34.8 81 -1.3 29.6
03:20 1016 30 845 24.95 1.7 35.1 79 -1.4 29.4
03:25 1016 30 845 24.95 1.9 35.3 79 -1.4 29.5
03:30 1016 30 845 24.95 1.9 35.3 79 -1.3 29.6
03:35 1016 30 845 24.95 1.9 35.4 79 -1.4 29.5
03:40 1016 30 845 24.95 1.9 35.4 79 -1.4 29.4
03:45 1016 30 845 24.95 1.9 35.4 79 -1.4 29.4
03:50 1016 30 845 24.95 1.9 35.5 78 -1.4 29.4
03:55 1016 30 845 24.95 1.9 35.4 79 -1.4 29.4
04:00 1016 30 845 24.95 1.9 35.5 79 -1.4 29.5
04:05 1016 30 845 24.95 1.9 35.4 79 -1.4 29.5
04:10 1016 30 845 24.95 1.9 35.5 79 -1.4 29.5
04:15 1016 30 845 24.95 1.9 35.5 78 -1.5 29.4
04:20 1016 30 845 24.95 2 35.5 78 -1.5 29.2
04:25 1016 30 845 24.95 2 35.6 78 -1.4 29.5
04:30 1016 30 845 24.95 1.9 35.5 79 -1.4 29.5
04:35 1016 30 846 24.98 1.9 35.4 79 -1.3 29.6
04:40 1016 30 846 24.98 1.8 35.3 82 -1 30.2
04:45 1017 30.03 846 24.98 1.6 34.8 85 -0.7 30.7
04:50 1017 30.03 846 24.98 1.4 34.5 87 -0.6 30.9
04:55 1017 30.03 846 24.98 1.4 34.6 84 -1 30.2
05:00 1017 30.03 846 24.98 1.4 34.5 87 -0.5 31.1
05:05 1017 30.03 846 24.98 1.3 34.3 88 -0.5 31.2
05:10 1017 30.03 846 24.98 1.2 34.1 88 -0.6 31
05:15 1017 30.03 846 24.98 1 33.8 89 -0.6 30.9
05:20 1017 30.03 846 24.98 1 33.8 88 -0.8 30.6
05:25 1017 30.03 846 24.98 1 33.9 88 -0.8 30.6
05:30 1017 30.03 846 24.98 1 33.9 88 -0.7 30.7
05:35 1017 30.03 846 24.98 1.1 33.9 88 -0.7 30.8
05:40 1017 30.03 846 24.98 1.1 33.9 88 -0.7 30.8
05:45 1017 30.03 846 24.98 1 33.9 88 -0.7 30.8
05:50 1017 30.03 846 24.98 1 33.9 88 -0.7 30.8
05:55 1017 30.03 846 24.98 1 33.8 89 -0.7 30.8
06:00 1017 30.03 846 24.98 1 33.8 88 -0.7 30.7
06:05 1017 30.03 846 24.98 1 33.8 88 -0.7 30.7
06:10 1017 30.03 846 24.98 1 33.8 88 -0.8 30.6
06:15 1017 30.03 846 24.98 1 33.9 88 -0.7 30.7
06:20 1017 30.03 846 24.98 1.1 33.9 87 -0.8 30.5
06:25 1017 30.03 846 24.98 1.2 34.1 85 -1 30.1
06:30 1017 30.03 846 24.98 1.4 34.5 84 -1.1 30.1
06:35 1017 30.03 846 24.98 1.4 34.6 83 -1.1 30
06:40 1017 30.03 846 24.98 1.4 34.6 85 -0.9 30.5
06:45 1017 30.03 846 24.98 1.5 34.7 85 -0.7 30.7
06:50 1017 30.03 846 24.98 1.5 34.7 85 -0.7 30.7
06:55 1017 30.03 846 24.98 1.5 34.7 84 -0.8 30.5
07:00 1017 30.03 846 24.98 1.5 34.7 84 -1 30.3
07:05 1017 30.03 846 24.98 1.5 34.7 83 -1 30.1
07:10 1017 30.03 846 24.98 1.5 34.6 85 -0.9 30.4
07:15 1017 30.03 846 24.98 1.4 34.5 85 -0.8 30.6
07:20 1017 30.03 846 24.98 1.3 34.4 86 -0.8 30.6
07:25 1017 30.03 846 24.98 1.4 34.5 85 -0.8 30.5
07:30 1017 30.03 846 24.98 1.4 34.5 84 -0.9 30.3
07:35 1017 30.03 846 24.98 1.5 34.6 83 -1.1 30
07:40 1017 30.03 846 24.98 1.5 34.7 84 -1 30.2
07:45 1017 30.03 846 24.98 1.5 34.7 83 -1 30.2
07:50 1017 30.03 846 24.98 1.8 35.2 81 -1.1 30
07:55 1017 30.03 846 24.98 2.3 36.2 80 -0.7 30.7
08:00 1017 30.03 846 24.98 2.3 36.1 80 -0.8 30.5
08:05 1017 30.03 846 24.98 2.4 36.3 82 -0.4 31.3
08:10 1017 30.03 846 24.98 3.1 37.6 79 -0.2 31.6
08:15 1017 30.03 846 24.98 3 37.3 78 -0.4 31.2
08:20 1017 30.03 846 24.98 3.3 37.9 79 -0 31.9
08:25 1017 30.03 846 24.98 3.9 39 77 0.2 32.4
08:30 1017 30.03 846 24.98 3.7 38.6 76 -0.2 31.7
08:35 1017 30.03 846 24.98 3.3 37.9 78 -0.3 31.5
08:40 1017 30.03 846 24.98 3.7 38.6 75 -0.3 31.5
08:45 1017 30.03 846 24.98 3.2 37.7 79 -0.1 31.8
08:50 1017 30.03 846 24.98 3.3 37.9 76 -0.5 31
08:55 1017 30.03 846 24.98 3.3 37.9 77 -0.3 31.5
09:00 1017 30.03 846 24.98 3.4 38.1 77 -0.4 31.3
09:05 1017 30.03 846 24.98 3.7 38.7 74 -0.6 30.9
09:10 1017 30.03 846 24.98 4 39.2 71 -0.7 30.7
09:15 1017 30.03 847 25.01 4.1 39.3 71 -0.7 30.7
09:20 1017 30.03 847 25.01 4 39.3 71 -0.8 30.6
09:25 1017 30.03 847 25.01 4.8 40.6 68 -0.7 30.8
09:30 1017 30.03 847 25.01 4.9 40.9 66 -0.8 30.6
09:35 1017 30.03 847 25.01 4.9 40.9 63 -1.4 29.4
09:40 1017 30.03 847 25.01 5 41 65 -1.1 30
09:45 1017 30.03 847 25.01 4.9 40.8 69 -0.4 31.3
09:50 1018 30.06 847 25.01 4.7 40.5 66 -1.1 30.1
09:55 1018 30.06 847 25.01 4.3 39.8 65 -1.6 29.2
10:00 1018 30.06 847 25.01 4.7 40.4 66 -1.2 29.8
10:05 1018 30.06 847 25.01 5.2 41.4 62 -1.5 29.3
10:10 1018 30.06 847 25.01 5 41 61 -1.9 28.5
10:15 1017 30.03 847 25.01 5.9 42.6 60 -1.3 29.6
10:20 1017 30.03 847 25.01 6.1 43 56 -2.1 28.3
10:25 1018 30.06 847 25.01 5.7 42.3 58 -2 28.4
10:30 1018 30.06 847 25.01 5.4 41.7 56 -2.6 27.3
10:35 1018 30.06 847 25.01 5.3 41.5 56 -2.8 27
10:40 1018 30.06 847 25.01 6 42.8 53 -2.7 27.1
10:45 1018 30.06 847 25.01 6.3 43.4 52 -2.9 26.8
10:50 1017 30.03 847 25.01 6.2 43.1 52 -2.8 26.9
10:55 1017 30.03 847 25.01 6.3 43.4 51 -3.1 26.5
11:00 1017 30.03 847 25.01 7 44.5 52 -2.3 27.8
11:05 1017 30.03 847 25.01 6.8 44.3 47 -3.8 25.1
11:10 1017 30.03 847 25.01 6.7 44 47 -3.8 25.1
11:15 1017 30.03 846 24.98 6.6 43.8 47 -3.9 25
11:20 1017 30.03 846 24.98 6.6 43.8 45 -4.6 23.8
11:25 1017 30.03 846 24.98 6.5 43.7 43 -5.3 22.4
11:30 1017 30.03 846 24.98 6.8 44.3 42 -5.1 22.9
11:35 1017 30.03 846 24.98 8.1 46.5 39 -4.9 23.2
11:40 1017 30.03 846 24.98 8.4 47.2 42 -3.8 25.2
11:45 1017 30.03 846 24.98 8.4 47.2 42 -3.8 25.2
11:50 1017 30.03 846 24.98 8 46.3 42 -4.1 24.6
11:55 1017 30.03 846 24.98 7.2 44.9 45 -4 24.9
12:00 1017 30.03 846 24.98 7.2 44.9 47 -3.5 25.8
12:05 1017 30.03 846 24.98 7.8 46.1 46 -3 26.7
12:10 1017 30.03 846 24.98 7.7 45.8 46 -3.3 26
12:15 1017 30.03 846 24.98 7.4 45.4 46 -3.4 25.9
12:20 1017 30.03 846 24.98 7.3 45.2 45 -3.7 25.3
12:25 1017 30.03 846 24.98 7.3 45.2 47 -3.4 25.9
12:30 1017 30.03 846 24.98 7.6 45.6 43 -4.1 24.7
12:35 1017 30.03 846 24.98 7.1 44.7 45 -4.1 24.6
12:40 1017 30.03 846 24.98 7.9 46.1 43 -4 24.7
12:45 1017 30.03 846 24.98 8.4 47.1 41 -4 24.8
12:50 1017 30.03 846 24.98 8.1 46.6 42 -4.2 24.5
12:55 1017 30.03 846 24.98 8.5 47.3 38 -4.9 23.3
13:00 1017 30.03 846 24.98 9.3 48.7 36 -5.1 22.8
13:05 1017 30.03 846 24.98 9.2 48.5 36 -5 23
13:10 1017 30.03 846 24.98 9.5 49.2 35 -5.1 22.9
13:15 1016 30 846 24.98 9.3 48.7 35 -5.3 22.4
13:20 1016 30 846 24.98 8.6 47.4 37 -5.3 22.4
13:25 1016 30 846 24.98 8.9 48 36 -5.5 22
13:30 1016 30 846 24.98 9.6 49.2 35 -5.1 22.9
13:35 1016 30 846 24.98 9.5 49.1 33 -6.1 21.1
13:40 1016 30 846 24.98 9.4 49 33 -5.9 21.4
13:45 1016 30 845 24.95 9.3 48.7 34 -5.9 21.3
13:50 1016 30 845 24.95 9.6 49.2 33 -6 21.3
13:55 1016 30 845 24.95 9.3 48.8 32 -6.6 20.2
14:00 1016 30 845 24.95 8.8 47.9 32 -7.1 19.2
14:05 1016 30 845 24.95 9.4 48.9 30 -7.5 18.6
14:10 1016 30 845 24.95 9.8 49.7 30 -6.8 19.7
14:15 1016 30 845 24.95 10.2 50.3 30 -6.5 20.2
14:20 1016 30 845 24.95 10.3 50.6 28 -7.2 19
14:25 1016 30 845 24.95 10.2 50.3 28 -7.6 18.3
14:30 1016 30 845 24.95 10 50 26 -8.7 16.3
14:35 1016 30 845 24.95 9.5 49.1 27 -8.5 16.6
14:40 1016 30 845 24.95 9.9 49.7 27 -8.4 16.8
14:45 1016 30 845 24.95 10 49.9 27 -8.1 17.3
14:50 1016 30 845 24.95 10.2 50.4 26 -8.4 16.8
14:55 1016 30 845 24.95 9.9 49.9 27 -8.1 17.4
15:00 1016 30 845 24.95 10.1 50.2 27 -8 17.7
15:05 1016 30 845 24.95 9.8 49.7 28 -7.7 18.1
15:10 1015 29.97 845 24.95 9.6 49.3 29 -7.5 18.6
15:15 1015 29.97 845 24.95 9.5 49.1 29 -7.8 18
15:20 1016 30 845 24.95 9.5 49 29 -7.8 18
15:25 1015 29.97 845 24.95 9.4 48.9 30 -7.4 18.6
15:30 1015 29.97 845 24.95 9.3 48.7 30 -7.3 18.8
15:35 1015 29.97 845 24.95 9.1 48.4 31 -7.2 19.1
15:40 1015 29.97 845 24.95 9.1 48.4 32 -6.7 19.9
15:45 1015 29.97 845 24.95 9.1 48.3 32 -6.8 19.7
15:50 1015 29.97 845 24.95 9 48.2 32 -7 19.4
15:55 1015 29.97 845 24.95 9 48.2 32 -6.9 19.6
16:00 1015 29.97 845 24.95 9 48.3 32 -6.9 19.5
16:05 1015 29.97 845 24.95 9 48.1 33 -6.6 20.1
16:10 1015 29.97 845 24.95 8.8 47.9 33 -6.5 20.4
16:15 1016 30 845 24.95 8.7 47.7 34 -6.3 20.7
16:20 1016 30 845 24.95 8.8 47.9 33 -6.4 20.5
16:25 1016 30 845 24.95 8.7 47.6 34 -6.3 20.6
16:30 1016 30 845 24.95 8.5 47.4 34 -6.6 20.1
16:35 1016 30 845 24.95 8.5 47.3 34 -6.6 20.1
16:40 1016 30 845 24.95 8.5 47.2 33 -6.7 19.9
16:45 1016 30 845 24.95 8.4 47.1 34 -6.6 20.1
16:50 1016 30 845 24.95 8.4 47 34 -6.4 20.4
16:55 1016 30 845 24.95 8.4 47 35 -6.3 20.6
17:00 1016 30 845 24.95 8.4 47.1 35 -6.2 20.8
17:05 1016 30 845 24.95 8.5 47.2 36 -5.8 21.6
17:10 1016 30 845 24.95 8.4 47 36 -5.9 21.5
17:15 1016 30 845 24.95 8.1 46.5 37 -5.9 21.3
17:20 1016 30 845 24.95 8 46.4 37 -5.7 21.8
17:25 1016 30 845 24.95 8 46.4 37 -5.7 21.7
17:30 1016 30 845 24.95 8.2 46.8 36 -6 21.2
17:35 1016 30 845 24.95 8.2 46.7 37 -5.8 21.5
17:40 1016 30 845 24.95 8.1 46.6 36 -6 21.3
17:45 1016 30 845 24.95 8 46.4 37 -5.9 21.4
17:50 1016 30 845 24.95 7.9 46.1 37 -5.8 21.5
17:55 1016 30 845 24.95 7.8 46.1 39 -5.3 22.5
18:00 1016 30 845 24.95 7.8 46 38 -5.8 21.6
18:05 1016 30 845 24.95 7.9 46.1 39 -5.4 22.3
18:10 1016 30 845 24.95 7.9 46.1 39 -5.4 22.3
18:15 1016 30 845 24.95 7.9 46.1 40 -5 23
18:20 1016 30 845 24.95 7.8 46 40 -5 23.1
18:25 1016 30 845 24.95 7.7 45.9 40 -4.8 23.3
18:30 1016 30 845 24.95 7.7 45.9 40 -4.9 23.2
18:35 1016 30 845 24.95 7.7 45.8 41 -4.8 23.3
18:40 1016 30 845 24.95 7.6 45.7 41 -4.8 23.4
18:45 1016 30 845 24.95 7.6 45.6 42 -4.6 23.7
18:50 1016 30 845 24.95 7.5 45.5 41 -4.7 23.5
18:55 1016 30 845 24.95 7.5 45.5 42 -4.5 23.9
19:00 1016 30 845 24.95 7.4 45.4 44 -4.1 24.6
19:05 1016 30 845 24.95 7.3 45.1 45 -4 24.8
19:10 1016 30 845 24.95 7.1 44.8 45 -3.9 25
19:15 1016 30 845 24.95 7 44.6 46 -3.9 25
19:20 1016 30 845 24.95 7 44.6 46 -3.8 25.2
19:25 1016 30 845 24.95 7 44.6 46 -3.8 25.1
19:30 1016 30 845 24.95 7 44.7 49 -2.9 26.7
19:35 1016 30 845 24.95 6.6 44 51 -2.6 27.3
19:40 1016 30 845 24.95 6.4 43.5 53 -2.5 27.5
19:45 1016 30 845 24.95 6.2 43.1 55 -2.2 28
19:50 1016 30 845 24.95 6 42.8 57 -2 28.4
19:55 1016 30 845 24.95 6 42.8 55 -2.2 28
20:00 1016 30 846 24.98 6.1 43 56 -2.1 28.3
20:05 1016 30 846 24.98 6.1 42.9 56 -2 28.5
20:10 1016 30 846 24.98 6.1 42.9 54 -2.5 27.4
20:15 1016 30 846 24.98 6.3 43.3 54 -2.4 27.7
20:20 1016 30 846 24.98 6.4 43.5 55 -2.1 28.2
20:25 1016 30 845 24.95 6.4 43.5 54 -2.2 28
20:30 1016 30 845 24.95 6.4 43.6 53 -2.3 27.8
20:35 1016 30 845 24.95 6.4 43.5 56 -1.8 28.7
20:40 1016 30 845 24.95 6.3 43.4 57 -1.6 29
20:45 1016 30 846 24.98 6.3 43.3 55 -2 28.5
20:50 1016 30 845 24.95 6.1 43.1 58 -1.5 29.3
20:55 1016 30 845 24.95 5.9 42.6 57 -1.9 28.5
21:00 1016 30 845 24.95 5.6 42.2 60 -1.6 29.1
21:05 1016 30 845 24.95 5.5 42 59 -1.8 28.7
21:10 1016 30 845 24.95 5.3 41.6 62 -1.3 29.7
21:15 1016 30 846 24.98 5.1 41.2 65 -1 30.2
21:20 1016 30 845 24.95 5.1 41.2 65 -1 30.2
21:25 1016 30 845 24.95 4.8 40.6 65 -1.1 29.9
21:30 1016 30 845 24.95 4.7 40.5 67 -0.9 30.4
21:35 1016 30 846 24.98 4.9 40.7 67 -0.7 30.7
21:40 1016 30 846 24.98 5 40.9 63 -1.5 29.2
21:45 1016 30 846 24.98 5 41 65 -1.1 30
21:50 1016 30 846 24.98 4.8 40.7 65 -1.3 29.7
21:55 1016 30 846 24.98 4.8 40.7 64 -1.4 29.5
22:00 1016 30 846 24.98 4.9 40.8 66 -0.9 30.4
22:05 1017 30.03 846 24.98 5 41 67 -0.7 30.7
22:10 1017 30.03 846 24.98 4.9 40.8 71 0.1 32.3
22:15 1017 30.03 846 24.98 4.5 40 76 0.6 33.1
22:20 1017 30.03 846 24.98 4.2 39.5 78 0.7 33.2
22:25 1017 30.03 846 24.98 3.5 38.4 82 0.8 33.4
22:30 1017 30.03 846 24.98 3.1 37.5 85 0.8 33.5
22:35 1017 30.03 846 24.98 3.1 37.5 85 0.9 33.6
22:40 1017 30.03 846 24.98 3.1 37.6 85 0.8 33.5
22:45 1017 30.03 846 24.98 3.2 37.8 86 1.1 33.9
22:50 1017 30.03 846 24.98 3.2 37.8 86 1.1 33.9
22:55 1017 30.03 846 24.98 3.3 37.9 86 1.1 33.9
23:00 1017 30.03 846 24.98 3.3 38 85 1.1 33.9
23:05 1017 30.03 846 24.98 3.3 38 85 1 33.8
23:10 1017 30.03 846 24.98 3.3 37.9 86 1.1 34
23:15 1017 30.03 846 24.98 3.2 37.8 86 1.1 33.9
23:20 1017 30.03 846 24.98 3.2 37.7 85 1 33.7
23:25 1017 30.03 846 24.98 3.2 37.7 86 1 33.8
23:30 1017 30.03 846 24.98 3.1 37.6 86 1 33.8
23:35 1017 30.03 846 24.98 3.1 37.6 86 1 33.9
23:40 1017 30.03 846 24.98 3.1 37.5 87 1.1 34
23:45 1017 30.03 846 24.98 3 37.4 87 1.1 33.9
23:50 1017 30.03 846 24.98 3 37.4 87 1.1 34
23:55 1017 30.03 846 24.98 2.9 37.3 88 1.1 33.9
24:00 1017 30.03 846 24.98 2.9 37.3 88 1.1 34